Time;durP1;ratioP1;P1;durP2;ratioP2;P2;SDS_P1;SDS_P2;PMS_P1;PMS_P2;Temp;Humidity;BMP_temperature;BMP_pressure;BME280_temperature;BME280_humidity;BME280_pressure;Samples;Min_cycle;Max_cycle;Signal;HPM_P1;HPM_P2
2022/01/11 00:03:52;;;;;;;20.90;13.20;;;23.10;48.30;;;;;;215602;1293;22732;-55
2022/01/11 00:09:08;;;;;;;19.10;11.10;;;23.30;48.00;;;;;;215325;1293;22615;-55
2022/01/11 00:14:11;;;;;;;19.60;13.20;;;23.60;47.30;;;;;;215525;1291;25391;-56
2022/01/11 00:19:18;;;;;;;17.40;13.20;;;23.60;47.30;;;;;;215250;1293;22611;-51
2022/01/11 00:24:28;;;;;;;17.60;12.00;;;23.80;46.70;;;;;;215668;1292;22925;-55
2022/01/11 00:29:35;;;;;;;25.10;13.20;;;23.80;46.60;;;;;;215701;1293;22591;-55
2022/01/11 00:34:51;;;;;;;18.30;12.20;;;23.90;46.60;;;;;;215685;1293;22579;-56
2022/01/11 00:39:54;;;;;;;19.40;13.10;;;23.90;46.30;;;;;;215749;1293;22591;-57
2022/01/11 00:44:58;;;;;;;16.50;12.50;;;23.90;46.20;;;;;;215402;1293;22576;-54
2022/01/11 00:50:04;;;;;;;18.40;13.20;;;23.90;46.00;;;;;;215564;1293;25274;-54
2022/01/11 00:55:08;;;;;;;19.40;13.20;;;23.90;46.00;;;;;;215568;1293;24341;-53
2022/01/11 01:00:13;;;;;;;19.00;12.90;;;23.90;45.90;;;;;;215630;1293;24610;-52
2022/01/11 01:05:17;;;;;;;16.10;11.10;;;23.90;45.80;;;;;;215537;1293;25624;-54
2022/01/11 01:10:29;;;;;;;18.10;12.00;;;23.80;45.90;;;;;;215243;1294;23217;-53
2022/01/11 01:15:42;;;;;;;16.40;11.00;;;23.80;45.90;;;;;;215524;1293;26627;-53
2022/01/11 01:20:59;;;;;;;21.10;11.90;;;23.80;46.00;;;;;;215329;1293;24347;-52
2022/01/11 01:26:03;;;;;;;18.50;12.50;;;23.70;46.00;;;;;;215089;1294;22732;-55
2022/01/11 01:31:07;;;;;;;17.60;12.30;;;23.80;46.30;;;;;;215263;1296;24254;-54
2022/01/11 01:36:11;;;;;;;16.00;11.40;;;23.70;46.00;;;;;;215239;1296;23074;-54
2022/01/11 01:41:18;;;;;;;14.40;10.60;;;23.80;45.90;;;;;;215707;1293;22579;-54
2022/01/11 01:46:23;;;;;;;16.70;11.50;;;23.80;46.00;;;;;;215300;1296;22708;-51
2022/01/11 01:51:28;;;;;;;15.80;11.00;;;23.80;46.00;;;;;;215428;1296;25632;-56
2022/01/11 01:56:33;;;;;;;16.60;12.30;;;23.80;45.90;;;;;;215306;1296;22632;-52
2022/01/11 02:01:44;;;;;;;15.90;11.10;;;23.70;45.90;;;;;;215236;1296;24305;-53
2022/01/11 02:06:57;;;;;;;17.10;11.20;;;23.80;46.20;;;;;;215153;1294;24579;-51
2022/01/11 02:12:08;;;;;;;16.30;11.60;;;23.80;45.80;;;;;;215261;1293;26972;-51
2022/01/11 02:17:11;;;;;;;15.70;10.90;;;23.80;45.80;;;;;;215526;1293;22566;-54
2022/01/11 02:22:15;;;;;;;16.20;12.20;;;23.80;45.60;;;;;;215564;1292;22729;-54
2022/01/11 02:27:19;;;;;;;17.20;11.60;;;23.90;45.50;;;;;;215482;1293;22670;-55
2022/01/11 02:32:23;;;;;;;16.80;11.60;;;23.80;45.40;;;;;;215447;1293;22595;-51
2022/01/11 02:37:28;;;;;;;16.80;11.60;;;23.80;45.40;;;;;;215690;1293;25640;-52
2022/01/11 02:42:40;;;;;;;15.90;11.20;;;23.80;45.60;;;;;;215382;1293;22567;-56
2022/01/11 02:47:46;;;;;;;16.70;11.90;;;23.90;45.30;;;;;;215294;1293;22572;-51
2022/01/11 02:52:50;;;;;;;15.40;11.10;;;23.90;45.20;;;;;;215436;1293;25278;-53
2022/01/11 02:57:56;;;;;;;16.00;10.60;;;23.90;45.10;;;;;;215688;1293;22583;-55
2022/01/11 03:03:17;;;;;;;14.50;10.50;;;23.90;45.30;;;;;;215429;1293;25284;-53
2022/01/11 03:08:23;;;;;;;14.90;10.90;;;23.90;45.20;;;;;;215521;1293;22592;-53
2022/01/11 03:13:30;;;;;;;15.30;11.30;;;23.90;45.10;;;;;;215230;1293;25710;-55
2022/01/11 03:18:35;;;;;;;15.50;11.20;;;23.90;45.10;;;;;;215218;1293;22598;-52
2022/01/11 03:23:39;;;;;;;17.20;12.10;;;23.90;45.10;;;;;;215768;1293;24244;-52
2022/01/11 03:28:42;;;;;;;16.70;11.10;;;23.90;45.10;;;;;;215600;1293;25293;-52
2022/01/11 03:33:47;;;;;;;14.20;10.80;;;23.90;45.00;;;;;;215306;1293;22652;-54
2022/01/11 03:38:51;;;;;;;15.40;10.90;;;23.90;45.30;;;;;;215561;1293;23065;-54
2022/01/11 03:43:55;;;;;;;16.60;10.80;;;23.90;44.80;;;;;;215352;1293;22573;-51
2022/01/11 03:48:59;;;;;;;14.60;10.50;;;23.90;44.80;;;;;;215640;1293;25552;-52
2022/01/11 03:54:12;;;;;;;15.20;10.90;;;23.90;44.80;;;;;;215497;1293;22569;-52
2022/01/11 03:59:30;;;;;;;14.50;10.60;;;23.90;44.70;;;;;;215626;1293;22576;-51
2022/01/11 04:04:33;;;;;;;15.70;10.30;;;23.90;44.60;;;;;;215611;1293;22933;-51
2022/01/11 04:09:37;;;;;;;14.50;10.70;;;23.90;44.70;;;;;;215592;1293;24431;-55
2022/01/11 04:14:42;;;;;;;14.10;9.80;;;23.90;44.70;;;;;;215374;1293;22564;-55
2022/01/11 04:19:46;;;;;;;14.40;10.10;;;24.00;44.70;;;;;;215311;1296;24282;-53
2022/01/11 04:24:50;;;;;;;14.20;9.90;;;24.00;44.60;;;;;;215193;1296;22662;-52
2022/01/11 04:29:55;;;;;;;14.40;10.10;;;24.00;44.50;;;;;;215364;1294;22621;-51
2022/01/11 04:34:58;;;;;;;13.60;10.30;;;24.00;44.50;;;;;;215161;1296;22640;-51
2022/01/11 04:40:03;;;;;;;13.40;10.40;;;23.90;44.40;;;;;;215331;1293;22597;-52
2022/01/11 04:45:11;;;;;;;13.90;10.50;;;23.90;44.40;;;;;;215699;1293;22578;-54
2022/01/11 04:50:15;;;;;;;13.60;10.40;;;23.90;44.50;;;;;;215369;1293;22571;-52
2022/01/11 04:55:20;;;;;;;13.70;10.10;;;23.90;44.50;;;;;;215394;1296;25508;-55
2022/01/11 05:00:25;;;;;;;15.00;9.80;;;23.90;44.70;;;;;;215342;1293;22579;-51
2022/01/11 05:05:29;;;;;;;14.80;10.10;;;23.90;44.30;;;;;;215419;1292;22651;-54
2022/01/11 05:10:33;;;;;;;15.70;10.60;;;23.90;44.20;;;;;;215266;1293;25904;-55
2022/01/11 05:15:38;;;;;;;12.80;9.10;;;24.00;44.10;;;;;;215496;1293;22594;-54
2022/01/11 05:20:43;;;;;;;13.60;9.80;;;24.00;44.10;;;;;;215349;1293;24916;-51
2022/01/11 05:25:47;;;;;;;13.40;9.80;;;23.90;44.20;;;;;;215221;1296;22580;-54
2022/01/11 05:30:50;;;;;;;16.10;10.80;;;23.90;44.20;;;;;;215646;1293;22752;-56
2022/01/11 05:35:55;;;;;;;13.80;10.20;;;23.90;44.40;;;;;;215234;1293;24311;-53
2022/01/11 05:40:59;;;;;;;15.70;10.00;;;23.90;44.90;;;;;;215350;1293;22569;-56
2022/01/11 05:46:04;;;;;;;13.60;9.70;;;24.00;44.50;;;;;;215404;1293;22579;-53
2022/01/11 05:51:08;;;;;;;15.70;10.00;;;24.00;44.50;;;;;;215565;1292;22569;-57
2022/01/11 05:56:12;;;;;;;16.80;10.40;;;23.90;45.10;;;;;;215230;1293;291012;-55
2022/01/11 06:01:18;;;;;;;14.10;10.00;;;24.00;44.40;;;;;;215332;1293;22611;-56
2022/01/11 06:06:22;;;;;;;15.70;10.80;;;24.00;44.30;;;;;;215510;1293;25373;-55
2022/01/11 06:11:27;;;;;;;15.20;10.90;;;24.00;44.70;;;;;;215688;1293;23089;-53
2022/01/11 06:16:31;;;;;;;14.30;10.10;;;24.00;44.10;;;;;;215483;1293;22575;-54
2022/01/11 06:21:36;;;;;;;13.50;10.10;;;24.00;44.10;;;;;;215474;1293;22585;-56
2022/01/11 06:26:41;;;;;;;13.30;9.60;;;24.00;44.00;;;;;;215631;1293;25534;-52
2022/01/11 06:31:45;;;;;;;15.30;11.00;;;24.00;44.30;;;;;;215412;1293;22664;-56
2022/01/11 06:36:49;;;;;;;16.10;10.70;;;24.00;43.90;;;;;;215188;1293;25394;-54
2022/01/11 06:41:53;;;;;;;15.10;10.50;;;24.00;44.30;;;;;;215604;1293;22601;-53
2022/01/11 06:46:57;;;;;;;17.00;10.90;;;23.90;44.00;;;;;;215512;1293;22595;-51
2022/01/11 06:52:02;;;;;;;13.90;10.00;;;24.00;44.00;;;;;;215251;1294;22612;-53
2022/01/11 06:57:05;;;;;;;16.00;11.30;;;23.90;44.10;;;;;;215385;1293;25546;-53
2022/01/11 07:02:10;;;;;;;16.40;10.90;;;23.90;44.70;;;;;;215446;1293;22688;-51
2022/01/11 07:07:37;;;;;;;16.90;11.00;;;23.90;44.60;;;;;;215259;1293;25437;-52
2022/01/11 07:12:41;;;;;;;19.10;11.00;;;23.90;44.80;;;;;;215331;1293;22593;-54
2022/01/11 07:17:48;;;;;;;16.10;11.10;;;23.90;45.70;;;;;;215399;1293;22569;-56
2022/01/11 07:22:52;;;;;;;17.40;11.60;;;23.90;45.80;;;;;;215614;1293;22594;-51
2022/01/11 07:27:56;;;;;;;19.00;11.10;;;23.90;46.40;;;;;;215680;1293;22818;-51
2022/01/11 07:33:01;;;;;;;24.50;11.50;;;23.90;45.90;;;;;;215583;1293;27721;-55
2022/01/11 07:38:05;;;;;;;19.20;11.00;;;23.90;46.00;;;;;;215308;1293;24286;-53
2022/01/11 07:43:09;;;;;;;19.10;11.40;;;23.80;46.00;;;;;;215517;1293;22591;-53
2022/01/11 07:48:19;;;;;;;25.70;11.30;;;23.90;45.70;;;;;;215359;1293;22570;-55
2022/01/11 07:53:29;;;;;;;26.60;11.50;;;24.00;45.80;;;;;;215374;1293;22604;-55
2022/01/11 07:58:36;;;;;;;23.20;11.00;;;24.00;45.50;;;;;;215041;1293;25349;-50
2022/01/11 08:03:41;;;;;;;22.60;12.30;;;24.10;45.80;;;;;;215446;1293;22584;-54
2022/01/11 08:08:55;;;;;;;17.40;11.60;;;24.10;44.60;;;;;;215150;1293;25297;-51
2022/01/11 08:14:01;;;;;;;16.60;11.00;;;24.10;44.50;;;;;;215636;1293;22594;-51
2022/01/11 08:19:08;;;;;;;19.80;11.80;;;24.10;44.70;;;;;;215481;1293;22586;-53
2022/01/11 08:24:12;;;;;;;20.10;11.90;;;24.20;44.40;;;;;;215517;1293;24409;-53
2022/01/11 08:29:18;;;;;;;17.90;11.10;;;24.20;44.30;;;;;;215656;1293;24354;-52
2022/01/11 08:34:24;;;;;;;18.50;11.60;;;24.20;44.60;;;;;;215389;1293;24422;-52
2022/01/11 08:39:29;;;;;;;18.90;11.90;;;24.20;44.20;;;;;;215673;1292;22570;-50
2022/01/11 08:44:35;;;;;;;18.70;12.50;;;24.20;44.20;;;;;;215888;1293;25570;-53
2022/01/11 08:49:39;;;;;;;17.10;11.70;;;24.10;43.70;;;;;;215355;1293;22634;-53
2022/01/11 08:54:42;;;;;;;15.20;11.20;;;24.10;44.10;;;;;;215227;1293;25393;-51
2022/01/11 08:59:47;;;;;;;17.10;11.60;;;24.00;44.60;;;;;;215665;1293;22594;-54
2022/01/11 09:04:54;;;;;;;16.40;11.40;;;23.90;44.60;;;;;;215530;1293;24313;-52
2022/01/11 09:10:04;;;;;;;15.20;11.30;;;23.90;44.90;;;;;;215497;1293;22586;-51
2022/01/11 09:15:09;;;;;;;18.00;12.10;;;23.80;45.10;;;;;;215371;1293;22592;-54
2022/01/11 09:20:16;;;;;;;19.80;12.20;;;23.70;45.30;;;;;;215036;1293;22601;-54
2022/01/11 09:25:25;;;;;;;17.60;12.60;;;23.50;45.70;;;;;;215841;1293;26555;-54
2022/01/11 09:30:44;;;;;;;17.30;11.80;;;23.30;45.90;;;;;;215071;1293;22677;-52
2022/01/11 09:35:56;;;;;;;17.20;10.90;;;23.20;46.10;;;;;;215468;1293;22576;-54
2022/01/11 09:41:03;;;;;;;16.00;11.70;;;23.20;46.40;;;;;;215574;1293;23173;-52
2022/01/11 09:46:12;;;;;;;15.90;11.50;;;23.20;46.30;;;;;;215491;1293;24314;-52
2022/01/11 09:51:17;;;;;;;20.70;12.90;;;23.20;46.30;;;;;;215272;1293;22648;-53
2022/01/11 09:56:39;;;;;;;24.40;14.60;;;23.10;45.70;;;;;;215675;1293;25305;-56
2022/01/11 10:01:48;;;;;;;18.00;12.70;;;23.10;45.80;;;;;;215565;1293;22649;-54
2022/01/11 10:07:19;;;;;;;16.90;11.70;;;23.00;46.50;;;;;;214914;1293;22582;-54
2022/01/11 10:12:23;;;;;;;18.10;12.00;;;23.00;46.30;;;;;;215305;1294;22612;-56
2022/01/11 10:17:37;;;;;;;18.30;12.50;;;22.90;46.40;;;;;;215189;1293;22778;-56
2022/01/11 10:22:46;;;;;;;17.00;11.90;;;23.00;46.30;;;;;;215292;1293;23118;-56
2022/01/11 10:27:58;;;;;;;17.60;12.50;;;22.90;46.50;;;;;;215382;1293;22661;-55
2022/01/11 10:33:07;;;;;;;17.20;12.20;;;22.80;46.60;;;;;;215195;1296;22617;-56
2022/01/11 10:38:25;;;;;;;17.30;12.20;;;22.80;46.80;;;;;;215341;1297;22805;-54
2022/01/11 10:43:30;;;;;;;16.30;11.40;;;22.80;46.90;;;;;;215246;1296;24252;-53
2022/01/11 10:48:46;;;;;;;20.60;12.60;;;22.80;46.90;;;;;;215217;1297;25368;-54
2022/01/11 10:53:54;;;;;;;16.10;11.50;;;22.70;47.40;;;;;;215223;1297;22642;-56
2022/01/11 10:59:09;;;;;;;14.90;11.50;;;22.70;47.10;;;;;;215029;1297;26547;-56
2022/01/11 11:04:32;;;;;;;17.40;12.50;;;22.80;47.00;;;;;;215213;1297;23064;-56
2022/01/11 11:09:46;;;;;;;16.70;12.00;;;22.70;47.00;;;;;;215275;1293;22601;-56
2022/01/11 11:14:56;;;;;;;17.50;12.60;;;22.80;47.00;;;;;;215542;1294;22790;-56
2022/01/11 11:20:09;;;;;;;15.40;10.90;;;22.80;47.00;;;;;;215418;1294;25468;-54
2022/01/11 11:25:12;;;;;;;15.60;11.90;;;22.70;47.20;;;;;;215636;1292;22610;-55
2022/01/11 11:30:16;;;;;;;17.60;11.70;;;22.80;46.70;;;;;;215533;1293;25576;-52
2022/01/11 11:35:20;;;;;;;17.90;12.40;;;22.80;46.40;;;;;;215565;1293;24272;-56
2022/01/11 11:40:27;;;;;;;16.50;11.60;;;22.80;47.00;;;;;;215560;1293;22570;-52
2022/01/11 11:45:36;;;;;;;15.00;11.60;;;22.70;46.60;;;;;;215847;1293;22547;-55
2022/01/11 11:50:52;;;;;;;15.20;11.30;;;22.80;46.70;;;;;;215814;1293;25560;-55
2022/01/11 11:56:14;;;;;;;15.40;12.00;;;22.80;46.60;;;;;;215827;1293;22731;-56
2022/01/11 12:01:47;;;;;;;17.30;12.30;;;22.80;46.60;;;;;;215597;1293;22665;-55
2022/01/11 12:07:18;;;;;;;16.70;11.60;;;22.80;46.80;;;;;;215556;1293;22760;-53
2022/01/11 12:12:40;;;;;;;14.80;11.10;;;22.80;46.40;;;;;;215318;1294;22868;-54
2022/01/11 12:17:44;;;;;;;15.40;11.60;;;22.70;46.50;;;;;;215530;1293;24414;-53
2022/01/11 12:22:53;;;;;;;15.80;11.10;;;22.80;46.50;;;;;;215359;1296;25515;-54
2022/01/11 12:28:05;;;;;;;16.50;12.40;;;22.70;46.80;;;;;;215436;1297;25906;-55
2022/01/11 12:33:13;;;;;;;16.20;12.10;;;22.70;46.50;;;;;;215465;1293;23101;-56
2022/01/11 12:38:19;;;;;;;15.20;11.70;;;22.70;46.40;;;;;;215493;1293;22607;-54
2022/01/11 12:43:41;;;;;;;14.50;11.00;;;22.70;46.50;;;;;;215428;1293;22566;-54
2022/01/11 12:53:50;;;;;;;15.50;11.10;;;22.70;46.60;;;;;;215297;1293;24332;-54
2022/01/11 12:58:56;;;;;;;14.70;11.00;;;22.70;46.20;;;;;;215631;1293;24351;-55
2022/01/11 13:04:02;;;;;;;16.80;12.40;;;22.70;46.30;;;;;;215465;1297;24347;-58
2022/01/11 13:09:08;;;;;;;15.50;11.10;;;22.70;46.00;;;;;;215229;1293;22576;-54
2022/01/11 13:14:37;;;;;;;15.90;11.70;;;22.70;46.00;;;;;;215200;1293;22585;-54
2022/01/11 13:19:41;;;;;;;15.60;11.80;;;22.70;45.90;;;;;;215370;1293;22592;-51
2022/01/11 13:24:49;;;;;;;16.90;11.50;;;22.70;45.60;;;;;;215734;1293;22601;-53
2022/01/11 13:29:52;;;;;;;16.30;11.30;;;22.50;46.20;;;;;;215203;1293;25476;-52
2022/01/11 13:34:56;;;;;;;15.60;10.90;;;22.40;46.10;;;;;;215254;1293;25375;-56
2022/01/11 13:40:00;;;;;;;16.70;11.60;;;22.40;46.20;;;;;;215211;1293;24271;-55
2022/01/11 13:45:04;;;;;;;14.60;11.20;;;22.80;45.50;;;;;;215573;1293;24404;-55
2022/01/11 13:50:09;;;;;;;15.90;11.50;;;23.20;44.50;;;;;;215231;1293;22593;-57
2022/01/11 13:55:12;;;;;;;15.00;11.20;;;23.40;44.00;;;;;;215411;1293;24331;-53
2022/01/11 14:00:16;;;;;;;16.40;11.00;;;23.60;43.60;;;;;;215207;1293;25532;-54
2022/01/11 14:05:29;;;;;;;14.70;11.20;;;23.70;43.50;;;;;;215412;1293;25885;-55
2022/01/11 14:10:36;;;;;;;14.00;10.80;;;23.80;43.40;;;;;;215450;1293;22815;-54
2022/01/11 14:15:40;;;;;;;15.30;10.90;;;23.80;43.40;;;;;;215432;1293;24396;-56
2022/01/11 14:20:49;;;;;;;13.10;10.30;;;23.80;43.30;;;;;;215253;1293;25098;-54
2022/01/11 14:25:54;;;;;;;15.40;11.20;;;23.90;43.30;;;;;;215195;1293;25395;-52
2022/01/11 14:31:15;;;;;;;15.80;11.10;;;23.90;43.60;;;;;;215355;1293;24227;-55
2022/01/11 14:36:22;;;;;;;13.80;11.10;;;23.90;43.30;;;;;;215109;1293;25358;-54
2022/01/11 14:41:46;;;;;;;14.80;10.90;;;23.90;43.30;;;;;;215258;1293;22620;-55
2022/01/11 14:46:57;;;;;;;13.10;10.20;;;23.90;43.30;;;;;;215374;1293;22612;-54
2022/01/11 14:52:15;;;;;;;14.90;10.90;;;23.80;43.40;;;;;;215316;1293;22744;-60
2022/01/11 14:57:29;;;;;;;16.80;11.80;;;23.90;43.40;;;;;;215302;1293;25364;-54
2022/01/11 15:02:33;;;;;;;18.00;12.00;;;23.90;43.90;;;;;;215274;1293;22605;-55
2022/01/11 15:08:25;;;;;;;;;;;;;;;;;;;;;
2022/01/11 15:14:09;;;;;;;;;;;;;;;;;;;;;
2022/01/11 15:19:08;;;;;;;;;;;24.00;47.60;;;;;;215319;1293;24149;-55
2022/01/11 15:24:22;;;;;;;17.30;11.60;;;24.10;47.70;;;;;;215604;1293;24256;-56
2022/01/11 15:29:48;;;;;;;18.10;12.30;;;24.00;47.00;;;;;;215435;1293;22617;-54
2022/01/11 15:34:54;;;;;;;16.40;11.50;;;23.90;46.40;;;;;;215388;1293;22620;-55
2022/01/11 15:40:26;;;;;;;22.10;12.00;;;23.90;46.10;;;;;;215276;1293;22606;-53
2022/01/11 15:45:31;;;;;;;15.40;11.00;;;23.80;46.10;;;;;;215776;1292;22619;-56
2022/01/11 15:50:35;;;;;;;16.10;11.20;;;23.80;46.00;;;;;;215314;1293;22570;-53
2022/01/11 15:55:41;;;;;;;17.00;11.00;;;23.80;45.90;;;;;;215425;1293;27167;-55
2022/01/11 16:01:00;;;;;;;14.60;11.10;;;23.80;45.80;;;;;;215609;1293;22607;-56
2022/01/11 16:06:09;;;;;;;14.20;10.50;;;23.80;45.50;;;;;;215695;1293;23026;-57
2022/01/11 16:11:13;;;;;;;17.70;12.10;;;23.80;45.30;;;;;;215447;1293;25398;-54
2022/01/11 16:16:21;;;;;;;15.40;11.10;;;23.80;45.10;;;;;;215480;1293;22636;-56
2022/01/11 16:21:26;;;;;;;15.40;11.10;;;23.90;45.10;;;;;;215489;1293;25370;-56
2022/01/11 16:26:30;;;;;;;20.80;12.30;;;23.90;45.30;;;;;;215363;1292;25416;-54
2022/01/11 16:31:35;;;;;;;22.70;12.10;;;23.90;43.90;;;;;;215190;1293;23754;-53
2022/01/11 16:36:45;;;;;;;31.50;11.30;;;24.00;44.20;;;;;;215412;1293;22611;-55
2022/01/11 16:47:11;;;;;;;21.70;11.20;;;24.00;45.00;;;;;;215370;1293;23121;-54
2022/01/11 16:52:24;;;;;;;26.90;12.20;;;24.00;44.60;;;;;;215350;1294;24325;-53
2022/01/11 16:57:31;;;;;;;24.20;12.40;;;23.90;45.00;;;;;;215124;1293;22592;-52
2022/01/11 17:02:39;;;;;;;19.80;11.80;;;23.80;45.50;;;;;;215308;1291;22587;-53
2022/01/11 17:07:54;;;;;;;25.30;12.50;;;23.70;46.50;;;;;;215224;1293;22606;-55
2022/01/11 17:13:03;;;;;;;21.50;11.80;;;23.50;47.80;;;;;;215351;1293;26905;-54
2022/01/11 17:18:19;;;;;;;24.30;12.00;;;23.40;48.60;;;;;;215380;1293;23289;-54
2022/01/11 17:23:27;;;;;;;20.30;11.50;;;23.30;49.20;;;;;;214926;1293;22608;-54
2022/01/11 17:28:32;;;;;;;30.60;12.20;;;23.20;49.50;;;;;;215148;1293;22592;-54
2022/01/11 17:33:47;;;;;;;24.80;12.90;;;23.10;49.20;;;;;;215094;1293;22665;-53
2022/01/11 17:38:51;;;;;;;27.90;13.60;;;23.10;49.30;;;;;;215046;1293;25357;-54
2022/01/11 17:43:59;;;;;;;28.70;13.20;;;23.00;49.10;;;;;;215880;1293;22848;-54
2022/01/11 17:49:10;;;;;;;25.20;13.60;;;23.20;48.80;;;;;;215005;1292;22800;-56
2022/01/11 17:54:16;;;;;;;32.90;14.00;;;23.20;49.30;;;;;;214616;1293;423314;-53
2022/01/11 17:59:20;;;;;;;31.70;14.20;;;23.40;49.30;;;;;;215075;1293;22619;-53
2022/01/11 18:04:26;;;;;;;28.60;13.70;;;23.60;48.70;;;;;;215256;1293;22762;-54
2022/01/11 18:09:33;;;;;;;32.80;16.00;;;23.80;48.40;;;;;;215079;1293;22597;-54
2022/01/11 18:14:40;;;;;;;28.10;14.20;;;23.90;47.80;;;;;;215278;1293;24264;-52
2022/01/11 18:19:46;;;;;;;35.90;16.10;;;24.10;47.60;;;;;;215047;1293;22628;-55
2022/01/11 18:24:53;;;;;;;30.20;16.00;;;24.20;47.00;;;;;;214882;1293;25499;-54
2022/01/11 18:30:00;;;;;;;31.00;16.10;;;24.30;47.10;;;;;;215366;1293;22671;-56
2022/01/11 18:35:05;;;;;;;34.80;16.90;;;24.30;47.10;;;;;;215317;1293;25477;-54
2022/01/11 18:40:11;;;;;;;39.80;18.10;;;24.30;48.10;;;;;;215454;1293;24356;-55
2022/01/11 18:45:17;;;;;;;40.70;19.60;;;24.30;47.50;;;;;;215209;1293;22585;-54
2022/01/11 18:50:22;;;;;;;37.40;17.90;;;24.20;47.20;;;;;;215195;1293;22645;-57
2022/01/11 18:55:27;;;;;;;34.90;18.50;;;24.10;47.70;;;;;;215584;1292;22601;-53
2022/01/11 19:00:38;;;;;;;34.70;18.20;;;23.90;47.20;;;;;;215593;1293;22626;-55
2022/01/11 19:05:46;;;;;;;33.00;17.50;;;23.90;47.50;;;;;;214855;1296;22632;-56
2022/01/11 19:10:54;;;;;;;38.20;18.80;;;23.70;47.50;;;;;;215289;1293;24226;-55
2022/01/11 19:16:22;;;;;;;38.30;19.40;;;23.60;48.00;;;;;;215312;1293;22830;-52
2022/01/11 19:21:27;;;;;;;32.00;18.10;;;23.50;48.30;;;;;;215243;1293;22585;-57
2022/01/11 19:26:34;;;;;;;28.80;18.00;;;23.30;48.20;;;;;;215388;1293;24253;-52
2022/01/11 19:31:54;;;;;;;33.50;19.20;;;23.20;48.30;;;;;;215309;1293;22656;-53
2022/01/11 19:37:33;;;;;;;37.70;18.90;;;23.00;48.30;;;;;;215175;1293;25541;-54
2022/01/11 19:43:02;;;;;;;34.00;18.40;;;22.90;48.50;;;;;;215499;1293;22605;-53
2022/01/11 19:48:20;;;;;;;35.80;19.90;;;22.90;49.00;;;;;;215273;1293;22608;-54
2022/01/11 19:53:32;;;;;;;34.40;18.70;;;22.80;49.60;;;;;;215414;1293;23806;-56
2022/01/11 19:58:50;;;;;;;44.00;19.70;;;22.70;50.40;;;;;;215263;1293;25429;-52
2022/01/11 20:04:09;;;;;;;33.50;19.00;;;22.60;51.30;;;;;;215385;1293;22571;-54
2022/01/11 20:09:14;;;;;;;32.20;19.00;;;22.70;50.80;;;;;;215366;1293;22629;-54
2022/01/11 20:14:21;;;;;;;33.40;18.70;;;22.60;50.70;;;;;;215309;1293;24252;-54
2022/01/11 20:19:32;;;;;;;36.40;20.30;;;22.60;50.50;;;;;;215470;1293;22664;-54
2022/01/11 20:30:24;;;;;;;35.30;19.40;;;22.40;50.80;;;;;;215574;1293;23043;-52
2022/01/11 20:35:35;;;;;;;34.60;21.00;;;22.30;50.50;;;;;;215296;1293;22599;-51
2022/01/11 20:40:41;;;;;;;30.10;19.10;;;22.50;49.90;;;;;;215335;1293;25682;-58
2022/01/11 20:45:46;;;;;;;40.00;20.30;;;23.00;48.80;;;;;;215530;1293;25300;-54
2022/01/11 20:50:56;;;;;;;37.30;20.10;;;23.30;48.10;;;;;;215429;1293;22737;-52
2022/01/11 20:56:06;;;;;;;32.70;20.00;;;23.50;47.60;;;;;;215341;1293;22580;-54
2022/01/11 21:01:13;;;;;;;37.40;22.20;;;23.70;47.10;;;;;;215296;1293;24470;-56
2022/01/11 21:06:19;;;;;;;36.10;21.20;;;23.90;46.90;;;;;;215414;1293;25245;-55
2022/01/11 21:11:23;;;;;;;35.20;21.50;;;24.00;46.00;;;;;;215375;1293;22648;-56
2022/01/11 21:20:05;;;;;;;43.30;23.80;;;24.10;46.40;;;;;;215429;1292;22705;-53
2022/01/11 21:22:10;;;;;;;41.00;23.90;;;24.10;47.10;;;;;;215138;1293;22625;-56
2022/01/11 21:27:27;;;;;;;43.50;24.60;;;24.10;46.70;;;;;;215204;1293;24344;-55
2022/01/11 21:32:47;;;;;;;40.30;24.10;;;24.20;46.90;;;;;;215154;1293;24328;-56
2022/01/11 21:37:56;;;;;;;43.20;25.10;;;24.20;46.70;;;;;;215244;1293;25360;-57
2022/01/11 21:43:01;;;;;;;38.80;23.90;;;24.10;46.50;;;;;;215259;1293;22601;-55
2022/01/11 21:48:08;;;;;;;39.40;26.10;;;24.10;46.80;;;;;;215300;1293;22613;-55
2022/01/11 21:53:17;;;;;;;42.10;25.80;;;24.00;46.60;;;;;;215166;1293;25377;-57
2022/01/11 21:58:36;;;;;;;43.00;25.70;;;23.90;47.00;;;;;;215255;1293;22813;-56
2022/01/11 22:03:43;;;;;;;45.90;29.40;;;23.90;46.80;;;;;;215152;1293;24460;-57
2022/01/11 22:09:13;;;;;;;43.10;25.70;;;23.90;46.90;;;;;;215384;1293;25708;-56
2022/01/11 22:14:44;;;;;;;52.40;30.60;;;23.90;47.00;;;;;;214714;1293;22658;-56
2022/01/11 22:20:04;;;;;;;51.90;29.90;;;23.90;46.80;;;;;;215193;1293;25342;-56
2022/01/11 22:25:16;;;;;;;46.50;28.40;;;24.00;46.50;;;;;;215471;1293;22591;-52
2022/01/11 22:30:30;;;;;;;51.60;31.20;;;24.00;46.30;;;;;;215362;1293;24317;-55
2022/01/11 22:35:42;;;;;;;48.20;30.00;;;24.10;46.30;;;;;;215290;1293;22573;-56
2022/01/11 22:41:02;;;;;;;52.50;29.80;;;24.10;46.50;;;;;;215452;1292;22626;-57
2022/01/11 22:46:20;;;;;;;49.70;28.90;;;24.10;46.60;;;;;;215181;1293;22592;-54
2022/01/11 22:51:30;;;;;;;50.80;29.80;;;24.20;46.30;;;;;;215204;1293;24259;-53
2022/01/11 22:56:49;;;;;;;52.00;29.80;;;24.20;46.30;;;;;;215217;1293;25205;-57
2022/01/11 23:02:10;;;;;;;48.60;30.40;;;24.30;46.50;;;;;;215181;1293;22746;-58
2022/01/11 23:07:16;;;;;;;47.10;28.80;;;24.20;46.30;;;;;;215345;1293;22584;-55
2022/01/11 23:12:40;;;;;;;53.60;32.00;;;24.10;46.50;;;;;;215195;1293;22734;-56
2022/01/11 23:17:45;;;;;;;53.50;30.90;;;24.10;46.70;;;;;;215328;1293;22589;-56
2022/01/11 23:22:51;;;;;;;48.30;29.20;;;24.20;47.80;;;;;;215478;1293;22573;-55
2022/01/11 23:27:55;;;;;;;49.10;30.50;;;24.10;48.50;;;;;;215222;1293;22716;-55
2022/01/11 23:33:03;;;;;;;52.30;33.00;;;24.00;49.20;;;;;;215426;1293;22603;-56
2022/01/11 23:38:19;;;;;;;50.50;30.60;;;23.90;49.30;;;;;;215576;1293;25528;-55
2022/01/11 23:43:48;;;;;;;51.10;33.00;;;23.80;49.30;;;;;;215560;1293;24471;-56
2022/01/11 23:48:57;;;;;;;53.50;33.10;;;23.60;49.60;;;;;;215616;1292;22756;-55
2022/01/11 23:54:20;;;;;;;47.90;31.00;;;23.50;49.70;;;;;;215553;1292;22657;-58
2022/01/11 23:59:29;;;;;;;48.60;33.00;;;23.40;49.90;;;;;;215493;1293;22576;-56
